Check out our new BloomSky Weather System.

Active alerts


No alerts


Thunder radar  blitzortung!


Rain radar more information rain snow radar


Visit our other weather sites:

Template documentation
and downloads

And another site



Weather Underground History page Text

Daily Summary for September 15, 2017 Units:  English    Metric   Both
« Previous Day
Next Day »
Daily Weekly Monthly Yearly Custom
  High: Low: Average:
Temperature: 91.2 °F 69.8 °F 80.2 °F
Dew Point: 76.3 °F 69.1 °F 72.8 °F
Humidity: 98 % 55 % 80 %
Wind Speed: 10.0 mph 0.0 mph 2 mph
Wind Gust: 12.0 mph - -
Wind:- - SE
Pressure: 29.94 in 29.85 in -
Precipitation: 0.00 in    
Historical Graphs
 
 
Tabular Data for September 15, 2017
Time Temperature Dew Point Pressure Wind Wind Speed Wind Gust Humidity Rainfall Rate (Hourly)
00:00 75.7 °F 71.6 °F 29.87 in Calm   2.0 mph 87 % 0.00 in
00:05 75.6 °F 71.4 °F 29.87 in Calm   1.0 mph 87 % 0.00 in
00:10 75.4 °F 71.6 °F 29.87 in Calm   1.0 mph 88 % 0.00 in
00:15 75.2 °F 71.4 °F 29.88 in Calm   1.0 mph 88 % 0.00 in
00:20 75.0 °F 71.2 °F 29.88 in Calm   1.0 mph 88 % 0.00 in
00:25 74.8 °F 71.1 °F 29.87 in Calm   1.0 mph 88 % 0.00 in
00:30 74.8 °F 71.4 °F 29.87 in Calm   1.0 mph 89 % 0.00 in
00:35 74.7 °F 71.2 °F 29.87 in East 1.0 mph 2.0 mph 89 % 0.00 in
00:40 74.8 °F 71.4 °F 29.87 in Calm   2.0 mph 89 % 0.00 in
00:45 74.7 °F 71.2 °F 29.87 in Calm   2.0 mph 89 % 0.00 in
00:50 74.7 °F 71.2 °F 29.87 in Calm   2.0 mph 89 % 0.00 in
00:55 74.7 °F 71.6 °F 29.88 in Calm   1.0 mph 90 % 0.00 in
01:00 74.5 °F 71.1 °F 29.88 in Calm   1.0 mph 89 % 0.00 in
01:05 74.3 °F 70.9 °F 29.88 in Calm   1.0 mph 89 % 0.00 in
01:10 73.9 °F 70.9 °F 29.87 in Calm   1.0 mph 90 % 0.00 in
01:15 73.8 °F 70.7 °F 29.87 in Calm     90 % 0.00 in
01:20 73.6 °F 70.7 °F 29.87 in Calm   1.0 mph 91 % 0.00 in
01:25 73.2 °F 70.5 °F 29.87 in Calm   1.0 mph 91 % 0.00 in
01:31 73.0 °F 70.3 °F 29.87 in Calm   1.0 mph 91 % 0.00 in
01:36 72.9 °F 70.3 °F 29.87 in Calm     92 % 0.00 in
01:41 72.9 °F 70.3 °F 29.87 in Calm     92 % 0.00 in
01:46 72.7 °F 70.5 °F 29.87 in Calm     93 % 0.00 in
01:51 72.7 °F 70.5 °F 29.87 in Calm   1.0 mph 93 % 0.00 in
01:56 72.7 °F 70.5 °F 29.87 in Calm   1.0 mph 93 % 0.00 in
02:01 72.3 °F 70.2 °F 29.87 in Calm   1.0 mph 93 % 0.00 in
02:06 72.3 °F 70.2 °F 29.87 in Calm     93 % 0.00 in
02:11 72.0 °F 69.8 °F 29.87 in Calm     93 % 0.00 in
02:16 72.0 °F 70.2 °F 29.87 in Calm     94 % 0.00 in
02:21 71.8 °F 70.0 °F 29.87 in Calm   1.0 mph 94 % 0.00 in
02:26 71.8 °F 70.0 °F 29.87 in Calm   1.0 mph 94 % 0.00 in
02:31 71.6 °F 69.8 °F 29.86 in Calm   1.0 mph 94 % 0.00 in
02:36 71.6 °F 69.8 °F 29.86 in Calm     94 % 0.00 in
02:41 71.4 °F 70.0 °F 29.87 in Calm     95 % 0.00 in
02:46 71.4 °F 70.0 °F 29.86 in Calm     95 % 0.00 in
02:51 71.2 °F 69.8 °F 29.86 in Calm     95 % 0.00 in
02:56 71.2 °F 69.8 °F 29.86 in Calm     95 % 0.00 in
03:01 71.2 °F 69.8 °F 29.86 in Calm     95 % 0.00 in
03:06 71.2 °F 69.8 °F 29.86 in Calm     95 % 0.00 in
03:11 71.1 °F 69.6 °F 29.86 in Calm     95 % 0.00 in
03:16 71.1 °F 69.8 °F 29.86 in Calm     96 % 0.00 in
03:21 71.1 °F 69.8 °F 29.86 in Calm     96 % 0.00 in
03:26 71.1 °F 69.8 °F 29.86 in Calm     96 % 0.00 in
03:31 70.9 °F 69.6 °F 29.86 in Calm     96 % 0.00 in
03:36 70.9 °F 69.6 °F 29.86 in Calm     96 % 0.00 in
03:41 70.9 °F 69.6 °F 29.86 in Calm   1.0 mph 96 % 0.00 in
03:46 70.9 °F 69.6 °F 29.86 in Calm   1.0 mph 96 % 0.00 in
03:51 70.7 °F 69.4 °F 29.86 in Calm   1.0 mph 96 % 0.00 in
03:56 70.7 °F 69.4 °F 29.86 in Calm   1.0 mph 96 % 0.00 in
04:01 70.5 °F 69.3 °F 29.86 in Calm   1.0 mph 96 % 0.00 in
04:06 70.5 °F 69.6 °F 29.86 in Calm     97 % 0.00 in
04:11 70.3 °F 69.4 °F 29.86 in Calm     97 % 0.00 in
04:16 70.5 °F 69.6 °F 29.86 in Calm     97 % 0.00 in
04:17 70.5 °F 69.6 °F 29.86 in Calm     97 % 0.00 in
04:22 70.3 °F 69.4 °F 29.86 in Calm     97 % 0.00 in
04:27 70.3 °F 69.4 °F 29.86 in Calm     97 % 0.00 in
04:32 70.2 °F 69.3 °F 29.86 in Calm     97 % 0.00 in
04:37 70.2 °F 69.3 °F 29.86 in Calm     97 % 0.00 in
04:42 70.0 °F 69.1 °F 29.86 in Calm     97 % 0.00 in
04:47 70.0 °F 69.1 °F 29.86 in Calm     97 % 0.00 in
04:52 70.0 °F 69.1 °F 29.87 in Calm     97 % 0.00 in
04:57 70.0 °F 69.1 °F 29.87 in Calm     97 % 0.00 in
05:02 70.0 °F 69.1 °F 29.87 in Calm     97 % 0.00 in
05:07 70.0 °F 69.1 °F 29.87 in Calm     97 % 0.00 in
05:12 70.0 °F 69.1 °F 29.87 in Calm     97 % 0.00 in
05:17 70.0 °F 69.4 °F 29.87 in Calm     98 % 0.00 in
05:22 70.0 °F 69.4 °F 29.87 in Calm     98 % 0.00 in
05:27 69.8 °F 69.3 °F 29.87 in Calm     98 % 0.00 in
05:32 69.8 °F 69.3 °F 29.87 in Calm     98 % 0.00 in
05:37 69.8 °F 69.3 °F 29.87 in Calm     98 % 0.00 in
05:42 70.0 °F 69.4 °F 29.87 in Calm   1.0 mph 98 % 0.00 in
05:47 70.0 °F 69.4 °F 29.87 in Calm   1.0 mph 98 % 0.00 in
05:52 70.0 °F 69.4 °F 29.88 in Calm   1.0 mph 98 % 0.00 in
05:57 70.0 °F 69.4 °F 29.88 in Calm   1.0 mph 98 % 0.00 in
06:02 70.0 °F 69.4 °F 29.88 in Calm   1.0 mph 98 % 0.00 in
06:07 70.0 °F 69.4 °F 29.88 in Calm     98 % 0.00 in
06:12 70.0 °F 69.4 °F 29.88 in Calm   1.0 mph 98 % 0.00 in
06:17 70.2 °F 69.6 °F 29.88 in Calm   1.0 mph 98 % 0.00 in
06:22 70.2 °F 69.6 °F 29.89 in Calm   1.0 mph 98 % 0.00 in
06:27 70.2 °F 69.6 °F 29.89 in Calm   1.0 mph 98 % 0.00 in
06:32 70.2 °F 69.6 °F 29.89 in Calm   1.0 mph 98 % 0.00 in
06:37 70.2 °F 69.6 °F 29.89 in Calm   1.0 mph 98 % 0.00 in
06:42 70.2 °F 69.6 °F 29.89 in Calm   1.0 mph 98 % 0.00 in
06:47 70.2 °F 69.6 °F 29.89 in Calm   1.0 mph 98 % 0.00 in
06:52 70.3 °F 69.8 °F 29.89 in Calm   1.0 mph 98 % 0.00 in
06:57 70.3 °F 69.8 °F 29.90 in Calm   1.0 mph 98 % 0.00 in
07:02 70.3 °F 69.8 °F 29.90 in Calm   1.0 mph 98 % 0.00 in
07:07 70.3 °F 69.8 °F 29.90 in Calm   1.0 mph 98 % 0.00 in
07:12 70.3 °F 69.8 °F 29.90 in Calm   1.0 mph 98 % 0.00 in
07:17 70.3 °F 69.8 °F 29.91 in Calm   1.0 mph 98 % 0.00 in
07:22 70.5 °F 70.0 °F 29.91 in Calm   1.0 mph 98 % 0.00 in
07:27 70.7 °F 70.2 °F 29.91 in Calm   1.0 mph 98 % 0.00 in
07:32 70.9 °F 70.3 °F 29.91 in Calm   1.0 mph 98 % 0.00 in
07:37 71.1 °F 70.5 °F 29.91 in Calm   1.0 mph 98 % 0.00 in
07:42 71.2 °F 70.7 °F 29.91 in Calm   1.0 mph 98 % 0.00 in
07:47 71.4 °F 70.9 °F 29.92 in Calm   1.0 mph 98 % 0.00 in
07:52 71.8 °F 71.2 °F 29.92 in Calm   1.0 mph 98 % 0.00 in
07:58 72.0 °F 71.4 °F 29.92 in Calm   1.0 mph 98 % 0.00 in
08:03 72.7 °F 72.1 °F 29.92 in Calm   1.0 mph 98 % 0.00 in
08:08 73.0 °F 72.5 °F 29.92 in Calm   1.0 mph 98 % 0.00 in
08:13 73.4 °F 72.5 °F 29.92 in Calm   1.0 mph 97 % 0.00 in
08:18 73.8 °F 72.9 °F 29.92 in Calm   2.0 mph 97 % 0.00 in
08:23 74.5 °F 73.2 °F 29.92 in Calm   2.0 mph 96 % 0.00 in
08:28 75.0 °F 73.4 °F 29.92 in East 1.0 mph 2.0 mph 95 % 0.00 in
08:33 75.6 °F 73.8 °F 29.92 in Calm   2.0 mph 94 % 0.00 in
08:38 76.3 °F 74.5 °F 29.92 in SE 1.0 mph 2.0 mph 94 % 0.00 in
08:43 77.0 °F 74.5 °F 29.92 in Calm   2.0 mph 92 % 0.00 in
08:48 77.5 °F 74.1 °F 29.92 in ENE 2.0 mph 2.0 mph 89 % 0.00 in
08:53 77.9 °F 74.1 °F 29.92 in SE 3.0 mph 3.0 mph 88 % 0.00 in
08:58 78.3 °F 74.7 °F 29.93 in Calm   5.0 mph 89 % 0.00 in
09:03 78.6 °F 74.8 °F 29.93 in Calm   5.0 mph 88 % 0.00 in
09:08 79.2 °F 74.7 °F 29.92 in Calm   5.0 mph 86 % 0.00 in
09:13 79.3 °F 74.5 °F 29.93 in Calm   5.0 mph 85 % 0.00 in
09:18 79.7 °F 74.5 °F 29.93 in ESE 3.0 mph 5.0 mph 84 % 0.00 in
09:23 80.1 °F 74.8 °F 29.93 in ESE 3.0 mph 5.0 mph 84 % 0.00 in
09:28 80.2 °F 74.7 °F 29.93 in East 2.0 mph 6.0 mph 83 % 0.00 in
09:33 80.6 °F 75.4 °F 29.94 in SE 1.0 mph 6.0 mph 84 % 0.00 in
09:38 80.8 °F 74.8 °F 29.94 in ESE 3.0 mph 6.0 mph 82 % 0.00 in
09:43 80.8 °F 75.2 °F 29.94 in South 3.0 mph 7.0 mph 83 % 0.00 in
09:48 81.3 °F 74.8 °F 29.94 in SE 3.0 mph 8.0 mph 81 % 0.00 in
09:53 81.9 °F 75.4 °F 29.94 in South 3.0 mph 8.0 mph 81 % 0.00 in
09:58 82.0 °F 75.2 °F 29.94 in ESE 1.0 mph 8.0 mph 80 % 0.00 in
10:03 82.2 °F 75.7 °F 29.94 in ESE 6.0 mph 6.0 mph 81 % 0.00 in
10:08 82.2 °F 75.4 °F 29.94 in East 1.0 mph 7.0 mph 80 % 0.00 in
10:13 82.6 °F 75.7 °F 29.94 in SE 4.0 mph 7.0 mph 80 % 0.00 in
10:18 82.6 °F 75.4 °F 29.93 in SSE 3.0 mph 8.0 mph 79 % 0.00 in
10:23 82.9 °F 75.7 °F 29.93 in SSE 3.0 mph 11.0 mph 79 % 0.00 in
10:28 83.3 °F 75.4 °F 29.93 in SE 2.0 mph 11.0 mph 77 % 0.00 in
10:33 83.3 °F 75.0 °F 29.93 in ESE 5.0 mph 11.0 mph 76 % 0.00 in
10:38 83.8 °F 75.4 °F 29.93 in SE 3.0 mph 9.0 mph 76 % 0.00 in
10:43 84.2 °F 75.7 °F 29.93 in South 5.0 mph 9.0 mph 76 % 0.00 in
10:48 84.6 °F 75.7 °F 29.93 in ESE 3.0 mph 9.0 mph 75 % 0.00 in
10:53 84.6 °F 74.5 °F 29.94 in SSE 8.0 mph 9.0 mph 72 % 0.00 in
10:58 84.9 °F 74.8 °F 29.94 in SSW 9.0 mph 11.0 mph 72 % 0.00 in
11:03 85.1 °F 75.0 °F 29.94 in SSE 5.0 mph 11.0 mph 72 % 0.00 in
11:08 85.3 °F 73.9 °F 29.94 in SE 6.0 mph 11.0 mph 69 % 0.00 in
11:13 85.3 °F 74.8 °F 29.94 in SE 6.0 mph 10.0 mph 71 % 0.00 in
11:19 85.5 °F 74.5 °F 29.93 in SSW 2.0 mph 10.0 mph 70 % 0.00 in
11:24 85.3 °F 74.8 °F 29.94 in South 3.0 mph 10.0 mph 71 % 0.00 in
11:29 85.5 °F 75.0 °F 29.93 in SSE 2.0 mph 10.0 mph 71 % 0.00 in
11:34 85.6 °F 75.2 °F 29.93 in SSE 1.0 mph 8.0 mph 71 % 0.00 in
11:39 86.2 °F 74.8 °F 29.93 in SE 3.0 mph 6.0 mph 69 % 0.00 in
11:44 86.4 °F 75.0 °F 29.93 in SSW 2.0 mph 7.0 mph 69 % 0.00 in
11:49 86.5 °F 74.7 °F 29.93 in SSW 3.0 mph 7.0 mph 68 % 0.00 in
11:54 86.2 °F 74.3 °F 29.93 in Calm   7.0 mph 68 % 0.00 in
11:59 86.9 °F 76.3 °F 29.93 in SSW 1.0 mph 5.0 mph 71 % 0.00 in
12:02 88.0 °F 76.1 °F 29.93 in SSW 1.0 mph 5.0 mph 68 % 0.00 in
12:07 88.3 °F 74.7 °F 29.93 in SSW 8.0 mph 8.0 mph 64 % 0.00 in
12:12 88.0 °F 74.3 °F 29.93 in SSE 2.0 mph 10.0 mph 64 % 0.00 in
12:17 87.3 °F 73.6 °F 29.92 in SSE 4.0 mph 10.0 mph 64 % 0.00 in
12:22 87.3 °F 74.1 °F 29.92 in SSE 3.0 mph 10.0 mph 65 % 0.00 in
12:28 87.4 °F 74.3 °F 29.92 in South 4.0 mph 7.0 mph 65 % 0.00 in
12:33 87.4 °F 74.7 °F 29.92 in South 3.0 mph 7.0 mph 66 % 0.00 in
12:38 88.0 °F 74.3 °F 29.92 in ESE 6.0 mph 9.0 mph 64 % 0.00 in
12:43 88.2 °F 73.4 °F 29.91 in SSW 7.0 mph 9.0 mph 62 % 0.00 in
12:48 87.6 °F 73.0 °F 29.91 in SSE 5.0 mph 12.0 mph 62 % 0.00 in
12:53 88.0 °F 73.8 °F 29.91 in SE 1.0 mph 12.0 mph 63 % 0.00 in
12:58 88.0 °F 72.9 °F 29.91 in SE 1.0 mph 12.0 mph 61 % 0.00 in
13:03 88.3 °F 73.6 °F 29.91 in SE 4.0 mph 8.0 mph 62 % 0.00 in
13:08 89.1 °F 73.9 °F 29.90 in ESE 4.0 mph 7.0 mph 61 % 0.00 in
13:13 89.2 °F 73.6 °F 29.90 in South 1.0 mph 8.0 mph 60 % 0.00 in
13:18 89.4 °F 73.8 °F 29.90 in ESE 10.0 mph 10.0 mph 60 % 0.00 in
13:23 89.6 °F 74.3 °F 29.90 in SW 3.0 mph 11.0 mph 61 % 0.00 in
13:28 90.0 °F 73.8 °F 29.89 in SSE 4.0 mph 11.0 mph 59 % 0.00 in
13:33 90.3 °F 72.5 °F 29.89 in South 2.0 mph 11.0 mph 56 % 0.00 in
13:38 90.1 °F 71.8 °F 29.89 in SE 1.0 mph 7.0 mph 55 % 0.00 in
13:43 89.8 °F 74.1 °F 29.88 in ENE 2.0 mph 9.0 mph 60 % 0.00 in
13:48 90.1 °F 73.9 °F 29.88 in ENE 4.0 mph 9.0 mph 59 % 0.00 in
13:53 90.7 °F 74.3 °F 29.88 in SW 8.0 mph 9.0 mph 59 % 0.00 in
13:58 90.9 °F 74.1 °F 29.88 in SW 2.0 mph 9.0 mph 58 % 0.00 in
14:03 90.7 °F 73.4 °F 29.88 in SSE 5.0 mph 9.0 mph 57 % 0.00 in
14:08 90.3 °F 73.0 °F 29.88 in East 6.0 mph 9.0 mph 57 % 0.00 in
14:13 89.8 °F 72.5 °F 29.88 in SE 1.0 mph 8.0 mph 57 % 0.00 in
14:18 89.4 °F 73.2 °F 29.87 in SE 4.0 mph 8.0 mph 59 % 0.00 in
14:23 89.8 °F 72.0 °F 29.87 in SSW 5.0 mph 8.0 mph 56 % 0.00 in
14:28 89.6 °F 73.4 °F 29.86 in SW 4.0 mph 8.0 mph 59 % 0.00 in
14:33 90.1 °F 72.9 °F 29.86 in SE 3.0 mph 8.0 mph 57 % 0.00 in
14:38 89.8 °F 72.5 °F 29.87 in East 3.0 mph 10.0 mph 57 % 0.00 in
14:43 89.4 °F 72.1 °F 29.86 in SSE 1.0 mph 10.0 mph 57 % 0.00 in
14:48 89.8 °F 72.5 °F 29.86 in ESE 2.0 mph 10.0 mph 57 % 0.00 in
14:53 89.6 °F 72.9 °F 29.86 in ESE 4.0 mph 7.0 mph 58 % 0.00 in
14:58 89.4 °F 73.8 °F 29.86 in ENE 1.0 mph 5.0 mph 60 % 0.00 in
15:03 90.0 °F 73.2 °F 29.86 in SE 3.0 mph 5.0 mph 58 % 0.00 in
15:08 90.0 °F 73.2 °F 29.86 in Calm   6.0 mph 58 % 0.00 in
15:13 90.1 °F 73.4 °F 29.86 in East 5.0 mph 6.0 mph 58 % 0.00 in
15:18 89.6 °F 73.9 °F 29.86 in ESE 6.0 mph 10.0 mph 60 % 0.00 in
15:23 89.2 °F 73.6 °F 29.86 in East 2.0 mph 11.0 mph 60 % 0.00 in
15:28 89.8 °F 73.6 °F 29.86 in SE 4.0 mph 11.0 mph 59 % 0.00 in
15:33 89.8 °F 73.6 °F 29.86 in ESE 3.0 mph 11.0 mph 59 % 0.00 in
15:38 90.1 °F 73.4 °F 29.85 in SE 3.0 mph 9.0 mph 58 % 0.00 in
15:44 90.5 °F 75.2 °F 29.85 in Calm   9.0 mph 61 % 0.00 in
15:49 91.2 °F 73.8 °F 29.85 in ENE 5.0 mph 5.0 mph 57 % 0.00 in
15:54 91.0 °F 73.8 °F 29.85 in SSE 4.0 mph 8.0 mph 57 % 0.00 in
15:59 90.3 °F 73.0 °F 29.85 in ESE 4.0 mph 8.0 mph 57 % 0.00 in
16:04 90.0 °F 73.2 °F 29.85 in East 1.0 mph 8.0 mph 58 % 0.00 in
16:09 90.1 °F 73.4 °F 29.85 in East 6.0 mph 8.0 mph 58 % 0.00 in
16:14 90.0 °F 73.2 °F 29.85 in SE 2.0 mph 8.0 mph 58 % 0.00 in
16:19 90.3 °F 73.0 °F 29.85 in SE 2.0 mph 7.0 mph 57 % 0.00 in
16:24 90.9 °F 74.1 °F 29.85 in SSE 5.0 mph 7.0 mph 58 % 0.00 in
16:29 91.2 °F 73.4 °F 29.85 in SE 4.0 mph 7.0 mph 56 % 0.00 in
16:34 91.0 °F 73.8 °F 29.85 in North 1.0 mph 8.0 mph 57 % 0.00 in
16:39 90.3 °F 73.6 °F 29.85 in SSE 2.0 mph 10.0 mph 58 % 0.00 in
16:44 90.1 °F 74.3 °F 29.85 in East 3.0 mph 10.0 mph 60 % 0.00 in
16:49 90.3 °F 74.5 °F 29.85 in SE 7.0 mph 10.0 mph 60 % 0.00 in
16:54 90.3 °F 74.1 °F 29.85 in East 2.0 mph 9.0 mph 59 % 0.00 in
16:59 90.1 °F 74.3 °F 29.85 in ENE 4.0 mph 9.0 mph 60 % 0.00 in
17:04 90.1 °F 74.3 °F 29.85 in WSW 4.0 mph 9.0 mph 60 % 0.00 in
17:09 90.3 °F 74.5 °F 29.85 in ESE 6.0 mph 9.0 mph 60 % 0.00 in
17:14 90.1 °F 74.3 °F 29.85 in SE 5.0 mph 10.0 mph 60 % 0.00 in
17:19 89.8 °F 74.5 °F 29.85 in ESE 7.0 mph 10.0 mph 61 % 0.00 in
17:24 89.4 °F 74.1 °F 29.85 in SE 6.0 mph 11.0 mph 61 % 0.00 in
17:29 89.2 °F 73.9 °F 29.85 in ESE 6.0 mph 11.0 mph 61 % 0.00 in
17:34 88.9 °F 74.1 °F 29.85 in ESE 7.0 mph 11.0 mph 62 % 0.00 in
17:39 88.9 °F 74.7 °F 29.85 in South 3.0 mph 12.0 mph 63 % 0.00 in
17:44 89.1 °F 74.8 °F 29.85 in SSE 4.0 mph 12.0 mph 63 % 0.00 in
17:49 89.1 °F 74.3 °F 29.86 in ESE 5.0 mph 12.0 mph 62 % 0.00 in
17:54 88.7 °F 74.5 °F 29.86 in SE 5.0 mph 9.0 mph 63 % 0.00 in
17:59 88.3 °F 74.7 °F 29.86 in SE 2.0 mph 11.0 mph 64 % 0.00 in
18:04 88.3 °F 74.7 °F 29.86 in East 6.0 mph 12.0 mph 64 % 0.00 in
18:09 88.2 °F 74.5 °F 29.86 in ENE 4.0 mph 12.0 mph 64 % 0.00 in
18:19 88.0 °F 74.7 °F 29.86 in SSE 5.0 mph 9.0 mph 65 % 0.00 in
18:24 87.6 °F 74.3 °F 29.86 in SE 4.0 mph 9.0 mph 65 % 0.00 in
18:29 87.4 °F 74.7 °F 29.87 in SE 5.0 mph 9.0 mph 66 % 0.00 in
18:34 87.1 °F 74.3 °F 29.86 in ESE 4.0 mph 8.0 mph 66 % 0.00 in
18:40 86.7 °F 74.5 °F 29.87 in ESE 6.0 mph 10.0 mph 67 % 0.00 in
18:44 86.5 °F 74.3 °F 29.87 in SE 5.0 mph 10.0 mph 67 % 0.00 in
18:50 86.4 °F 74.1 °F 29.87 in SE 3.0 mph 10.0 mph 67 % 0.00 in
18:55 86.0 °F 74.1 °F 29.87 in South 2.0 mph 9.0 mph 68 % 0.00 in
19:00 85.8 °F 73.9 °F 29.87 in SE 5.0 mph 9.0 mph 68 % 0.00 in
19:05 85.5 °F 74.1 °F 29.87 in SE 3.0 mph 10.0 mph 69 % 0.00 in
19:10 85.3 °F 74.3 °F 29.87 in SE 3.0 mph 10.0 mph 70 % 0.00 in
19:15 85.1 °F 74.1 °F 29.87 in SSE 2.0 mph 9.0 mph 70 % 0.00 in
19:20 84.9 °F 74.1 °F 29.87 in SE 2.0 mph 8.0 mph 70 % 0.00 in
19:25 84.7 °F 74.3 °F 29.87 in SE 5.0 mph 8.0 mph 71 % 0.00 in
19:30 84.6 °F 74.1 °F 29.88 in SE 4.0 mph 6.0 mph 71 % 0.00 in
19:35 84.6 °F 74.5 °F 29.88 in ESE 2.0 mph 6.0 mph 72 % 0.00 in
19:40 84.4 °F 74.3 °F 29.88 in ESE 5.0 mph 7.0 mph 72 % 0.00 in
19:45 84.2 °F 74.7 °F 29.88 in ENE 2.0 mph 7.0 mph 73 % 0.00 in
19:50 84.0 °F 74.5 °F 29.88 in SSE 4.0 mph 9.0 mph 73 % 0.00 in
19:55 84.0 °F 74.5 °F 29.88 in SSE 4.0 mph 9.0 mph 73 % 0.00 in
20:00 83.8 °F 74.3 °F 29.88 in SSE 3.0 mph 9.0 mph 73 % 0.00 in
20:05 83.8 °F 74.7 °F 29.89 in SE 4.0 mph 8.0 mph 74 % 0.00 in
20:10 83.7 °F 74.5 °F 29.89 in SE 3.0 mph 7.0 mph 74 % 0.00 in
20:15 83.5 °F 74.7 °F 29.89 in SE 3.0 mph 10.0 mph 75 % 0.00 in
20:20 83.3 °F 74.5 °F 29.89 in ESE 3.0 mph 10.0 mph 75 % 0.00 in
20:25 83.1 °F 74.8 °F 29.89 in ESE 1.0 mph 10.0 mph 76 % 0.00 in
20:30 82.9 °F 74.7 °F 29.89 in ESE 2.0 mph 6.0 mph 76 % 0.00 in
20:35 82.6 °F 74.7 °F 29.90 in ESE 3.0 mph 10.0 mph 77 % 0.00 in
20:40 82.4 °F 74.5 °F 29.90 in SSE 2.0 mph 10.0 mph 77 % 0.00 in
20:45 82.0 °F 74.5 °F 29.90 in SE 2.0 mph 10.0 mph 78 % 0.00 in
20:50 81.9 °F 74.3 °F 29.90 in ESE 5.0 mph 8.0 mph 78 % 0.00 in
20:55 81.7 °F 74.5 °F 29.90 in SSE 4.0 mph 7.0 mph 79 % 0.00 in
21:00 81.3 °F 74.5 °F 29.90 in SE 4.0 mph 7.0 mph 80 % 0.00 in
21:05 81.1 °F 74.3 °F 29.90 in ESE 4.0 mph 9.0 mph 80 % 0.00 in
21:10 81.1 °F 74.7 °F 29.91 in East 5.0 mph 11.0 mph 81 % 0.00 in
21:15 81.0 °F 74.7 °F 29.91 in ESE 6.0 mph 11.0 mph 81 % 0.00 in
21:20 81.0 °F 75.0 °F 29.91 in ESE 2.0 mph 11.0 mph 82 % 0.00 in
21:25 80.8 °F 74.8 °F 29.92 in SE 3.0 mph 9.0 mph 82 % 0.00 in
21:30 80.6 °F 74.7 °F 29.92 in ESE 3.0 mph 9.0 mph 82 % 0.00 in
21:35 80.4 °F 74.8 °F 29.92 in ESE 2.0 mph 9.0 mph 83 % 0.00 in
21:40 80.4 °F 74.8 °F 29.92 in SE 2.0 mph 6.0 mph 83 % 0.00 in
21:45 80.4 °F 74.8 °F 29.92 in ESE 2.0 mph 6.0 mph 83 % 0.00 in
21:50 80.2 °F 74.7 °F 29.92 in SSE 3.0 mph 6.0 mph 83 % 0.00 in
21:55 80.2 °F 74.7 °F 29.93 in South 4.0 mph 5.0 mph 83 % 0.00 in
22:00 80.1 °F 74.8 °F 29.93 in South 3.0 mph 6.0 mph 84 % 0.00 in
22:05 80.1 °F 74.8 °F 29.93 in SE 2.0 mph 6.0 mph 84 % 0.00 in
22:11 79.9 °F 74.7 °F 29.93 in ESE 5.0 mph 6.0 mph 84 % 0.00 in
22:16 79.7 °F 74.8 °F 29.93 in SE 1.0 mph 5.0 mph 85 % 0.00 in
22:21 79.5 °F 74.7 °F 29.93 in SE 1.0 mph 5.0 mph 85 % 0.00 in
22:22 79.5 °F 74.7 °F 29.93 in SE 3.0 mph 5.0 mph 85 % 0.00 in
22:27 79.5 °F 74.7 °F 29.93 in ESE 4.0 mph 5.0 mph 85 % 0.00 in
22:32 79.5 °F 74.7 °F 29.93 in East 2.0 mph 4.0 mph 85 % 0.00 in
22:37 79.3 °F 74.5 °F 29.93 in East 1.0 mph 4.0 mph 85 % 0.00 in
22:42 79.2 °F 74.7 °F 29.93 in ESE 1.0 mph 4.0 mph 86 % 0.00 in
22:47 79.0 °F 74.5 °F 29.93 in ESE 3.0 mph 5.0 mph 86 % 0.00 in
22:52 78.8 °F 74.7 °F 29.93 in SSE 3.0 mph 5.0 mph 87 % 0.00 in
22:57 78.8 °F 74.7 °F 29.93 in ESE 1.0 mph 7.0 mph 87 % 0.00 in
23:02 78.6 °F 74.5 °F 29.93 in SE 2.0 mph 7.0 mph 87 % 0.00 in
23:08 78.6 °F 74.5 °F 29.93 in SE 2.0 mph 7.0 mph 87 % 0.00 in
23:13 78.6 °F 74.5 °F 29.93 in Calm   5.0 mph 87 % 0.00 in
23:18 78.6 °F 74.8 °F 29.93 in ESE 2.0 mph 5.0 mph 88 % 0.00 in
23:23 78.4 °F 74.7 °F 29.94 in East 1.0 mph 5.0 mph 88 % 0.00 in
23:28 78.4 °F 74.7 °F 29.94 in South 1.0 mph 5.0 mph 88 % 0.00 in
23:33 78.1 °F 74.3 °F 29.93 in SSE 1.0 mph 5.0 mph 88 % 0.00 in
23:38 77.9 °F 74.5 °F 29.93 in SSE 2.0 mph 3.0 mph 89 % 0.00 in
23:43 77.7 °F 74.3 °F 29.93 in SSE 1.0 mph 3.0 mph 89 % 0.00 in
23:48 77.7 °F 74.3 °F 29.93 in SSE 1.0 mph 3.0 mph 89 % 0.00 in
23:53 77.4 °F 73.9 °F 29.93 in SE 1.0 mph 3.0 mph 89 % 0.00 in
23:58 77.4 °F 74.1 °F 29.93 in South 1.0 mph 2.0 mph 90 % 0.00 in
Spring, Texas: Villages of Bridgestone
Compliments of Weather Underground - 2.75 mb

Script developed by  Jim McMurry - jmcmurry@mwt.net Adapted for the template by  Wim van der Kuil - Leuven-Template.eu

You find our weather info also at:

UK Metoffice

WeatherCloud

Weather Underground

Mid-South Weather Network

AWEKAS

Citizen Weather Observer Program (CWOP)

HAMweather, WeatherForYou, PWS Weather

Equipment we use:

Weather-station
Davis Vantage Vue

Weather-program
Meteohub

Weather-server
Debian 7.9 x86 (Guest)

Provider
DreamHost

Davis Vantage Vue

Meteohub

Debian 7.9 x86 (Guest)

DreamHost